sensor_id;sensor_type;location;lat;lon;timestamp;temperature;humidity
12771;DHT22;6449;47.666;9.160;2024-02-14T00:01:43;3.20;99.90
12771;DHT22;6449;47.666;9.160;2024-02-14T00:06:36;3.20;99.90
12771;DHT22;6449;47.666;9.160;2024-02-14T00:11:31;3.20;99.90
12771;DHT22;6449;47.666;9.160;2024-02-14T00:16:25;3.20;99.90
12771;DHT22;6449;47.666;9.160;2024-02-14T00:21:23;3.20;99.90
12771;DHT22;6449;47.666;9.160;2024-02-14T00:26:17;3.30;99.90
12771;DHT22;6449;47.666;9.160;2024-02-14T00:31:10;3.30;99.90
12771;DHT22;6449;47.666;9.160;2024-02-14T00:36:04;3.40;99.90
12771;DHT22;6449;47.666;9.160;2024-02-14T00:40:59;3.20;99.90
12771;DHT22;6449;47.666;9.160;2024-02-14T00:45:53;3.10;99.90
12771;DHT22;6449;47.666;9.160;2024-02-14T01:06:10;3.00;99.90
12771;DHT22;6449;47.666;9.160;2024-02-14T01:11:08;3.00;99.90
12771;DHT22;6449;47.666;9.160;2024-02-14T01:16:03;3.00;99.90
12771;DHT22;6449;47.666;9.160;2024-02-14T01:20:57;3.20;99.90
12771;DHT22;6449;47.666;9.160;2024-02-14T01:46:21;3.20;99.90
12771;DHT22;6449;47.666;9.160;2024-02-14T01:51:18;3.30;99.90
12771;DHT22;6449;47.666;9.160;2024-02-14T01:56:16;3.40;99.90
12771;DHT22;6449;47.666;9.160;2024-02-14T02:01:11;3.30;99.90
12771;DHT22;6449;47.666;9.160;2024-02-14T02:26:37;3.30;99.90
12771;DHT22;6449;47.666;9.160;2024-02-14T02:31:31;3.10;99.90
12771;DHT22;6449;47.666;9.160;2024-02-14T02:36:25;3.00;99.90
12771;DHT22;6449;47.666;9.160;2024-02-14T02:41:22;3.00;99.90
12771;DHT22;6449;47.666;9.160;2024-02-14T02:46:17;2.70;99.90
12771;DHT22;6449;47.666;9.160;2024-02-14T03:06:34;3.10;99.90
12771;DHT22;6449;47.666;9.160;2024-02-14T03:11:28;3.00;99.90
12771;DHT22;6449;47.666;9.160;2024-02-14T03:16:22;2.90;99.90
12771;DHT22;6449;47.666;9.160;2024-02-14T03:21:16;2.90;99.90
12771;DHT22;6449;47.666;9.160;2024-02-14T03:26:11;3.00;99.90
12771;DHT22;6449;47.666;9.160;2024-02-14T03:31:05;3.10;99.90
12771;DHT22;6449;47.666;9.160;2024-02-14T03:35:59;3.10;99.90
12771;DHT22;6449;47.666;9.160;2024-02-14T03:40:53;3.20;99.90
12771;DHT22;6449;47.666;9.160;2024-02-14T03:45:48;3.00;99.90
12771;DHT22;6449;47.666;9.160;2024-02-14T03:50:43;2.80;99.90
12771;DHT22;6449;47.666;9.160;2024-02-14T03:55:39;2.70;99.90
12771;DHT22;6449;47.666;9.160;2024-02-14T04:00:32;2.80;99.90
12771;DHT22;6449;47.666;9.160;2024-02-14T04:25:56;2.90;99.90
12771;DHT22;6449;47.666;9.160;2024-02-14T04:30:50;3.10;99.90
12771;DHT22;6449;47.666;9.160;2024-02-14T04:35:47;3.10;99.90
12771;DHT22;6449;47.666;9.160;2024-02-14T04:40:41;3.20;99.90
12771;DHT22;6449;47.666;9.160;2024-02-14T04:45:36;3.30;99.90
12771;DHT22;6449;47.666;9.160;2024-02-14T04:50:30;3.30;99.90
12771;DHT22;6449;47.666;9.160;2024-02-14T04:55:24;3.30;99.90
12771;DHT22;6449;47.666;9.160;2024-02-14T05:00:21;3.30;99.90
12771;DHT22;6449;47.666;9.160;2024-02-14T05:05:19;3.10;99.90
12771;DHT22;6449;47.666;9.160;2024-02-14T05:10:16;2.90;99.90
12771;DHT22;6449;47.666;9.160;2024-02-14T05:15:10;2.80;99.90
12771;DHT22;6449;47.666;9.160;2024-02-14T05:20:05;2.80;99.90
12771;DHT22;6449;47.666;9.160;2024-02-14T05:45:30;3.70;99.90
12771;DHT22;6449;47.666;9.160;2024-02-14T05:50:24;3.70;99.90
12771;DHT22;6449;47.666;9.160;2024-02-14T05:55:17;3.70;99.90
12771;DHT22;6449;47.666;9.160;2024-02-14T06:00:12;3.70;99.90
12771;DHT22;6449;47.666;9.160;2024-02-14T06:05:08;3.70;99.90
12771;DHT22;6449;47.666;9.160;2024-02-14T06:10:03;3.80;99.90
12771;DHT22;6449;47.666;9.160;2024-02-14T06:14:58;3.70;99.90
12771;DHT22;6449;47.666;9.160;2024-02-14T06:19:52;3.80;99.90
12771;DHT22;6449;47.666;9.160;2024-02-14T06:24:47;3.70;99.90
12771;DHT22;6449;47.666;9.160;2024-02-14T06:29:42;3.80;99.90
12771;DHT22;6449;47.666;9.160;2024-02-14T06:34:36;3.80;99.90
12771;DHT22;6449;47.666;9.160;2024-02-14T06:39:33;3.90;99.90
12771;DHT22;6449;47.666;9.160;2024-02-14T06:44:28;3.80;99.90
12771;DHT22;6449;47.666;9.160;2024-02-14T06:49:27;3.80;99.90
12771;DHT22;6449;47.666;9.160;2024-02-14T06:54:21;3.80;99.90
12771;DHT22;6449;47.666;9.160;2024-02-14T06:59:14;3.90;99.90
12771;DHT22;6449;47.666;9.160;2024-02-14T07:04:09;3.90;99.90
12771;DHT22;6449;47.666;9.160;2024-02-14T07:09:03;4.00;99.90
12771;DHT22;6449;47.666;9.160;2024-02-14T07:19:04;4.20;99.90
12771;DHT22;6449;47.666;9.160;2024-02-14T07:29:06;4.50;99.90
12771;DHT22;6449;47.666;9.160;2024-02-14T07:34:02;4.60;99.90
12771;DHT22;6449;47.666;9.160;2024-02-14T07:39:01;4.60;99.90
12771;DHT22;6449;47.666;9.160;2024-02-14T07:43:55;4.60;99.90
12771;DHT22;6449;47.666;9.160;2024-02-14T07:48:50;4.80;99.90
12771;DHT22;6449;47.666;9.160;2024-02-14T07:53:44;4.80;99.90
12771;DHT22;6449;47.666;9.160;2024-02-14T07:58:38;4.90;99.90
12771;DHT22;6449;47.666;9.160;2024-02-14T08:03:32;4.90;99.90
12771;DHT22;6449;47.666;9.160;2024-02-14T08:08:27;4.90;99.90
12771;DHT22;6449;47.666;9.160;2024-02-14T08:13:21;5.00;99.90
12771;DHT22;6449;47.666;9.160;2024-02-14T08:18:17;5.10;99.90
12771;DHT22;6449;47.666;9.160;2024-02-14T08:23:13;5.20;99.90
12771;DHT22;6449;47.666;9.160;2024-02-14T08:28:12;5.40;99.90
12771;DHT22;6449;47.666;9.160;2024-02-14T08:33:10;5.50;99.90
12771;DHT22;6449;47.666;9.160;2024-02-14T08:38:07;5.70;99.90
12771;DHT22;6449;47.666;9.160;2024-02-14T08:43:01;5.70;99.90
12771;DHT22;6449;47.666;9.160;2024-02-14T08:47:58;5.70;99.90
12771;DHT22;6449;47.666;9.160;2024-02-14T08:52:53;5.70;99.90
12771;DHT22;6449;47.666;9.160;2024-02-14T08:57:47;5.80;99.90
12771;DHT22;6449;47.666;9.160;2024-02-14T09:02:41;6.00;99.90
12771;DHT22;6449;47.666;9.160;2024-02-14T09:07:36;6.20;99.90
12771;DHT22;6449;47.666;9.160;2024-02-14T09:12:33;6.20;99.90
12771;DHT22;6449;47.666;9.160;2024-02-14T09:17:27;6.20;99.90
12771;DHT22;6449;47.666;9.160;2024-02-14T09:22:21;6.20;99.90
12771;DHT22;6449;47.666;9.160;2024-02-14T09:27:16;6.30;99.90
12771;DHT22;6449;47.666;9.160;2024-02-14T09:32:10;6.40;99.90
12771;DHT22;6449;47.666;9.160;2024-02-14T09:37:03;6.50;99.90
12771;DHT22;6449;47.666;9.160;2024-02-14T09:41:59;6.60;99.90
12771;DHT22;6449;47.666;9.160;2024-02-14T09:46:56;6.60;99.90
12771;DHT22;6449;47.666;9.160;2024-02-14T09:51:52;6.60;99.90
12771;DHT22;6449;47.666;9.160;2024-02-14T09:56:49;6.70;99.90
12771;DHT22;6449;47.666;9.160;2024-02-14T10:01:45;6.60;99.90
12771;DHT22;6449;47.666;9.160;2024-02-14T10:06:41;6.50;99.90
12771;DHT22;6449;47.666;9.160;2024-02-14T10:11:36;6.50;99.90
12771;DHT22;6449;47.666;9.160;2024-02-14T10:16:34;6.60;99.90
12771;DHT22;6449;47.666;9.160;2024-02-14T10:21:29;6.90;99.90
12771;DHT22;6449;47.666;9.160;2024-02-14T10:26:27;7.10;99.90
12771;DHT22;6449;47.666;9.160;2024-02-14T10:31:24;7.20;99.90
12771;DHT22;6449;47.666;9.160;2024-02-14T10:36:19;7.40;99.90
12771;DHT22;6449;47.666;9.160;2024-02-14T10:41:13;7.60;99.90
12771;DHT22;6449;47.666;9.160;2024-02-14T10:46:20;7.60;99.90
12771;DHT22;6449;47.666;9.160;2024-02-14T10:51:21;7.70;99.90
12771;DHT22;6449;47.666;9.160;2024-02-14T10:56:18;7.70;99.90
12771;DHT22;6449;47.666;9.160;2024-02-14T11:01:21;7.70;99.90
12771;DHT22;6449;47.666;9.160;2024-02-14T11:06:19;7.80;99.90
12771;DHT22;6449;47.666;9.160;2024-02-14T11:11:15;8.00;99.90
12771;DHT22;6449;47.666;9.160;2024-02-14T11:16:09;8.00;99.90
12771;DHT22;6449;47.666;9.160;2024-02-14T11:21:15;8.00;99.90
12771;DHT22;6449;47.666;9.160;2024-02-14T11:26:15;8.10;99.90
12771;DHT22;6449;47.666;9.160;2024-02-14T11:31:09;8.10;99.90
12771;DHT22;6449;47.666;9.160;2024-02-14T11:36:09;8.20;99.90
12771;DHT22;6449;47.666;9.160;2024-02-14T11:41:06;8.20;99.90
12771;DHT22;6449;47.666;9.160;2024-02-14T11:46:04;8.30;99.90
12771;DHT22;6449;47.666;9.160;2024-02-14T11:50:58;8.20;99.90
12771;DHT22;6449;47.666;9.160;2024-02-14T11:55:57;8.10;99.90
12771;DHT22;6449;47.666;9.160;2024-02-14T12:00:53;8.10;99.90
12771;DHT22;6449;47.666;9.160;2024-02-14T12:05:48;8.10;99.90
12771;DHT22;6449;47.666;9.160;2024-02-14T12:10:45;8.20;99.90
12771;DHT22;6449;47.666;9.160;2024-02-14T12:15:45;8.30;99.90
12771;DHT22;6449;47.666;9.160;2024-02-14T12:20:40;8.40;99.90
12771;DHT22;6449;47.666;9.160;2024-02-14T12:25:35;8.60;99.90
12771;DHT22;6449;47.666;9.160;2024-02-14T12:30:47;8.60;99.90
12771;DHT22;6449;47.666;9.160;2024-02-14T12:35:48;8.70;99.90
12771;DHT22;6449;47.666;9.160;2024-02-14T12:40:46;8.80;99.90
12771;DHT22;6449;47.666;9.160;2024-02-14T12:45:41;8.80;99.90
12771;DHT22;6449;47.666;9.160;2024-02-14T12:50:36;9.00;99.90
12771;DHT22;6449;47.666;9.160;2024-02-14T12:55:30;9.10;99.90
12771;DHT22;6449;47.666;9.160;2024-02-14T13:00:24;9.20;99.90
12771;DHT22;6449;47.666;9.160;2024-02-14T13:05:21;9.40;99.90
12771;DHT22;6449;47.666;9.160;2024-02-14T13:10:19;9.50;99.90
12771;DHT22;6449;47.666;9.160;2024-02-14T13:15:13;9.60;99.90
12771;DHT22;6449;47.666;9.160;2024-02-14T13:20:07;9.70;99.90
12771;DHT22;6449;47.666;9.160;2024-02-14T13:25:03;9.70;99.90
12771;DHT22;6449;47.666;9.160;2024-02-14T13:29:59;10.10;99.90
12771;DHT22;6449;47.666;9.160;2024-02-14T13:34:53;10.10;99.90
12771;DHT22;6449;47.666;9.160;2024-02-14T13:39:46;10.20;99.90
12771;DHT22;6449;47.666;9.160;2024-02-14T13:44:40;10.50;99.90
12771;DHT22;6449;47.666;9.160;2024-02-14T13:49:35;10.70;99.90
12771;DHT22;6449;47.666;9.160;2024-02-14T13:54:30;11.10;99.90
12771;DHT22;6449;47.666;9.160;2024-02-14T13:59:24;11.20;99.90
12771;DHT22;6449;47.666;9.160;2024-02-14T14:04:18;11.20;99.90
12771;DHT22;6449;47.666;9.160;2024-02-14T14:09:14;11.00;99.90
12771;DHT22;6449;47.666;9.160;2024-02-14T14:14:07;11.00;99.90
12771;DHT22;6449;47.666;9.160;2024-02-14T14:19:07;10.90;99.90
12771;DHT22;6449;47.666;9.160;2024-02-14T14:24:02;10.80;99.90
12771;DHT22;6449;47.666;9.160;2024-02-14T14:29:01;10.60;99.90
12771;DHT22;6449;47.666;9.160;2024-02-14T14:33:55;10.40;99.90
12771;DHT22;6449;47.666;9.160;2024-02-14T14:38:49;10.20;99.90
12771;DHT22;6449;47.666;9.160;2024-02-14T14:43:43;10.10;99.90
12771;DHT22;6449;47.666;9.160;2024-02-14T14:48:38;10.10;99.90
12771;DHT22;6449;47.666;9.160;2024-02-14T14:53:32;10.00;99.90
12771;DHT22;6449;47.666;9.160;2024-02-14T14:58:27;10.10;99.90
12771;DHT22;6449;47.666;9.160;2024-02-14T15:03:25;10.00;99.90
12771;DHT22;6449;47.666;9.160;2024-02-14T15:08:23;10.00;99.90
12771;DHT22;6449;47.666;9.160;2024-02-14T15:13:19;10.10;99.90
12771;DHT22;6449;47.666;9.160;2024-02-14T15:18:13;10.00;99.90
12771;DHT22;6449;47.666;9.160;2024-02-14T15:23:07;10.00;99.90
12771;DHT22;6449;47.666;9.160;2024-02-14T15:28:07;9.90;99.90
12771;DHT22;6449;47.666;9.160;2024-02-14T15:33:07;9.90;99.90
12771;DHT22;6449;47.666;9.160;2024-02-14T15:38:20;9.80;99.90
12771;DHT22;6449;47.666;9.160;2024-02-14T15:43:16;9.80;99.90
12771;DHT22;6449;47.666;9.160;2024-02-14T15:48:10;9.80;99.90
12771;DHT22;6449;47.666;9.160;2024-02-14T15:53:07;9.70;99.90
12771;DHT22;6449;47.666;9.160;2024-02-14T15:58:01;9.60;99.90
12771;DHT22;6449;47.666;9.160;2024-02-14T16:02:56;9.60;99.90
12771;DHT22;6449;47.666;9.160;2024-02-14T16:07:53;9.50;99.90
12771;DHT22;6449;47.666;9.160;2024-02-14T16:12:47;9.40;99.90
12771;DHT22;6449;47.666;9.160;2024-02-14T16:17:41;9.30;99.90
12771;DHT22;6449;47.666;9.160;2024-02-14T16:22:37;9.20;99.90
12771;DHT22;6449;47.666;9.160;2024-02-14T16:27:38;9.10;99.90
12771;DHT22;6449;47.666;9.160;2024-02-14T16:32:32;9.00;99.90
12771;DHT22;6449;47.666;9.160;2024-02-14T16:37:32;8.90;99.90
12771;DHT22;6449;47.666;9.160;2024-02-14T16:42:27;8.90;99.90
12771;DHT22;6449;47.666;9.160;2024-02-14T16:47:21;8.80;99.90
12771;DHT22;6449;47.666;9.160;2024-02-14T16:52:14;8.70;99.90
12771;DHT22;6449;47.666;9.160;2024-02-14T16:57:08;8.70;99.90
12771;DHT22;6449;47.666;9.160;2024-02-14T17:02:04;8.60;99.90
12771;DHT22;6449;47.666;9.160;2024-02-14T17:07:01;8.60;99.90
12771;DHT22;6449;47.666;9.160;2024-02-14T17:11:55;8.50;99.90
12771;DHT22;6449;47.666;9.160;2024-02-14T17:16:49;8.50;99.90
12771;DHT22;6449;47.666;9.160;2024-02-14T17:21:46;8.50;99.90
12771;DHT22;6449;47.666;9.160;2024-02-14T17:26:40;8.50;99.90
12771;DHT22;6449;47.666;9.160;2024-02-14T17:31:34;8.50;99.90
12771;DHT22;6449;47.666;9.160;2024-02-14T17:36:29;8.40;99.90
12771;DHT22;6449;47.666;9.160;2024-02-14T17:41:24;8.40;99.90
12771;DHT22;6449;47.666;9.160;2024-02-14T17:46:18;8.30;99.90
12771;DHT22;6449;47.666;9.160;2024-02-14T17:51:11;8.30;99.90
12771;DHT22;6449;47.666;9.160;2024-02-14T17:56:06;8.20;99.90
12771;DHT22;6449;47.666;9.160;2024-02-14T18:01:04;8.20;99.90
12771;DHT22;6449;47.666;9.160;2024-02-14T18:05:59;8.20;99.90
12771;DHT22;6449;47.666;9.160;2024-02-14T18:10:56;8.30;99.90
12771;DHT22;6449;47.666;9.160;2024-02-14T18:15:49;8.30;99.90
12771;DHT22;6449;47.666;9.160;2024-02-14T18:20:44;8.20;99.90
12771;DHT22;6449;47.666;9.160;2024-02-14T18:25:38;8.20;99.90
12771;DHT22;6449;47.666;9.160;2024-02-14T18:30:33;8.20;99.90
12771;DHT22;6449;47.666;9.160;2024-02-14T18:35:30;8.20;99.90
12771;DHT22;6449;47.666;9.160;2024-02-14T18:40:26;8.10;99.90
12771;DHT22;6449;47.666;9.160;2024-02-14T18:45:19;8.10;99.90
12771;DHT22;6449;47.666;9.160;2024-02-14T18:50:13;8.00;99.90
12771;DHT22;6449;47.666;9.160;2024-02-14T18:55:09;7.90;99.90
12771;DHT22;6449;47.666;9.160;2024-02-14T19:00:06;7.90;99.90
12771;DHT22;6449;47.666;9.160;2024-02-14T19:05:03;7.80;99.90
12771;DHT22;6449;47.666;9.160;2024-02-14T19:10:00;7.70;99.90
12771;DHT22;6449;47.666;9.160;2024-02-14T19:14:54;7.70;99.90
12771;DHT22;6449;47.666;9.160;2024-02-14T19:19:51;7.70;99.90
12771;DHT22;6449;47.666;9.160;2024-02-14T19:24:49;7.60;99.90
12771;DHT22;6449;47.666;9.160;2024-02-14T19:29:43;7.60;99.90
12771;DHT22;6449;47.666;9.160;2024-02-14T19:34:37;7.60;99.90
12771;DHT22;6449;47.666;9.160;2024-02-14T19:39:32;7.60;99.90
12771;DHT22;6449;47.666;9.160;2024-02-14T19:44:26;7.60;99.90
12771;DHT22;6449;47.666;9.160;2024-02-14T19:49:22;7.60;99.90
12771;DHT22;6449;47.666;9.160;2024-02-14T19:54:19;7.60;99.90
12771;DHT22;6449;47.666;9.160;2024-02-14T19:59:38;7.60;99.90
12771;DHT22;6449;47.666;9.160;2024-02-14T20:05:07;7.70;99.90
12771;DHT22;6449;47.666;9.160;2024-02-14T20:10:25;7.70;99.90
12771;DHT22;6449;47.666;9.160;2024-02-14T20:21:29;7.70;99.90
12771;DHT22;6449;47.666;9.160;2024-02-14T20:26:44;7.70;99.90
12771;DHT22;6449;47.666;9.160;2024-02-14T20:37:55;7.70;99.90
12771;DHT22;6449;47.666;9.160;2024-02-14T20:43:20;7.70;99.90
12771;DHT22;6449;47.666;9.160;2024-02-14T20:48:32;7.70;99.90
12771;DHT22;6449;47.666;9.160;2024-02-14T20:53:43;7.70;99.90
12771;DHT22;6449;47.666;9.160;2024-02-14T20:58:54;7.70;99.90
12771;DHT22;6449;47.666;9.160;2024-02-14T21:04:30;7.70;99.90
12771;DHT22;6449;47.666;9.160;2024-02-14T21:09:33;7.70;99.90
12771;DHT22;6449;47.666;9.160;2024-02-14T21:14:52;7.70;99.90
12771;DHT22;6449;47.666;9.160;2024-02-14T21:20:03;7.70;99.90
12771;DHT22;6449;47.666;9.160;2024-02-14T21:25:06;7.70;99.90
12771;DHT22;6449;47.666;9.160;2024-02-14T21:30:55;7.70;99.90
12771;DHT22;6449;47.666;9.160;2024-02-14T21:41:33;7.60;99.90
12771;DHT22;6449;47.666;9.160;2024-02-14T21:46:43;7.50;99.90
12771;DHT22;6449;47.666;9.160;2024-02-14T21:51:51;7.50;99.90
12771;DHT22;6449;47.666;9.160;2024-02-14T21:56:50;7.50;99.90
12771;DHT22;6449;47.666;9.160;2024-02-14T22:01:45;7.40;99.90
12771;DHT22;6449;47.666;9.160;2024-02-14T22:06:38;7.40;99.90
12771;DHT22;6449;47.666;9.160;2024-02-14T22:16:45;7.50;99.90
12771;DHT22;6449;47.666;9.160;2024-02-14T22:21:41;7.40;99.90
12771;DHT22;6449;47.666;9.160;2024-02-14T22:26:36;7.40;99.90
12771;DHT22;6449;47.666;9.160;2024-02-14T22:31:32;7.40;99.90
12771;DHT22;6449;47.666;9.160;2024-02-14T22:36:29;7.50;99.90
12771;DHT22;6449;47.666;9.160;2024-02-14T22:41:23;7.40;99.90
12771;DHT22;6449;47.666;9.160;2024-02-14T22:46:18;7.30;99.90
12771;DHT22;6449;47.666;9.160;2024-02-14T22:51:12;7.30;99.90
12771;DHT22;6449;47.666;9.160;2024-02-14T22:56:07;7.10;99.90
12771;DHT22;6449;47.666;9.160;2024-02-14T23:01:02;7.10;99.90
12771;DHT22;6449;47.666;9.160;2024-02-14T23:06:05;6.90;99.90
12771;DHT22;6449;47.666;9.160;2024-02-14T23:11:20;6.90;99.90
12771;DHT22;6449;47.666;9.160;2024-02-14T23:16:18;6.90;99.90
12771;DHT22;6449;47.666;9.160;2024-02-14T23:21:13;6.80;99.90
12771;DHT22;6449;47.666;9.160;2024-02-14T23:26:11;6.80;99.90
12771;DHT22;6449;47.666;9.160;2024-02-14T23:31:05;6.60;99.90
12771;DHT22;6449;47.666;9.160;2024-02-14T23:36:00;6.50;99.90
12771;DHT22;6449;47.666;9.160;2024-02-14T23:40:55;6.40;99.90
12771;DHT22;6449;47.666;9.160;2024-02-14T23:45:49;6.40;99.90
12771;DHT22;6449;47.666;9.160;2024-02-14T23:50:44;6.30;99.90
12771;DHT22;6449;47.666;9.160;2024-02-14T23:55:41;6.30;99.90
